Time;durP1;ratioP1;P1;durP2;ratioP2;P2;SDS_P1;SDS_P2;PMS_P1;PMS_P2;Temp;Humidity;BMP_temperature;BMP_pressure;BME280_temperature;BME280_humidity;BME280_pressure;Samples;Min_cycle;Max_cycle;Signal;HPM_P1;HPM_P2
2021/12/19 00:00:31;;;;;;;8.25;3.20;;;;;;;;;;2392695;56;21032;-80
2021/12/19 00:03:18;;;;;;;9.93;4.28;;;;;;;;;;2392826;56;21071;-79
2021/12/19 00:08:47;;;;;;;9.73;3.80;;;;;;;;;;2649865;52;20928;-79
2021/12/19 00:11:15;;;;;;;7.35;2.97;;;;;;;;;;2650488;52;21040;-79
2021/12/19 00:13:42;;;;;;;6.10;3.10;;;;;;;;;;2392531;56;21024;-78
2021/12/19 00:16:10;;;;;;;11.02;3.72;;;;;;;;;;2392446;56;21095;-78
2021/12/19 00:19:04;;;;;;;7.82;3.28;;;;;;;;;;2393126;56;21030;-79
2021/12/19 00:21:32;;;;;;;17.27;5.47;;;;;;;;;;2392611;56;21067;-79
2021/12/19 00:24:00;;;;;;;14.25;3.30;;;;;;;;;;2392194;56;21038;-80
2021/12/19 00:26:27;;;;;;;9.15;3.30;;;;;;;;;;2392570;56;21031;-78
2021/12/19 00:28:55;;;;;;;14.65;4.40;;;;;;;;;;2391789;56;21086;-79
2021/12/19 00:31:22;;;;;;;10.82;4.20;;;;;;;;;;2392401;56;20964;-78
2021/12/19 00:33:52;;;;;;;11.60;3.78;;;;;;;;;;2392294;56;21529;-79
2021/12/19 00:36:19;;;;;;;9.93;3.53;;;;;;;;;;2392719;56;21150;-80
2021/12/19 00:39:01;;;;;;;8.93;4.15;;;;;;;;;;2391956;56;21043;-79
2021/12/19 00:41:29;;;;;;;16.27;4.30;;;;;;;;;;2392854;56;21039;-80
2021/12/19 00:44:07;;;;;;;10.90;3.92;;;;;;;;;;2392825;56;21167;-79
2021/12/19 00:46:49;;;;;;;13.32;4.00;;;;;;;;;;2649682;52;21568;-79
2021/12/19 00:50:04;;;;;;;19.58;4.45;;;;;;;;;;2649435;52;21067;-79
2021/12/19 00:52:31;;;;;;;17.73;4.78;;;;;;;;;;2598507;52;21027;-79
2021/12/19 00:54:58;;;;;;;13.85;4.90;;;;;;;;;;2392356;56;21099;-78
2021/12/19 00:57:26;;;;;;;13.10;4.70;;;;;;;;;;2393254;56;21111;-78
2021/12/19 00:59:53;;;;;;;21.25;5.70;;;;;;;;;;2392401;56;21083;-79
2021/12/19 01:02:20;;;;;;;14.73;5.93;;;;;;;;;;2393976;56;21024;-78
2021/12/19 01:04:48;;;;;;;12.50;4.87;;;;;;;;;;2393413;56;21102;-78
2021/12/19 01:07:15;;;;;;;23.70;6.15;;;;;;;;;;2393011;56;21019;-79
2021/12/19 01:09:42;;;;;;;16.27;5.60;;;;;;;;;;2650193;52;21068;-79
2021/12/19 01:12:10;;;;;;;20.12;5.53;;;;;;;;;;2393112;56;21020;-79
2021/12/19 01:14:37;;;;;;;17.85;5.25;;;;;;;;;;2649980;52;21024;-79
2021/12/19 01:17:07;;;;;;;18.05;5.20;;;;;;;;;;2392809;56;21063;-79
2021/12/19 01:19:37;;;;;;;14.20;5.32;;;;;;;;;;2392150;56;21024;-79
2021/12/19 01:22:05;;;;;;;18.05;5.93;;;;;;;;;;2650008;52;21087;-79
2021/12/19 01:24:33;;;;;;;18.62;5.78;;;;;;;;;;2650593;52;21538;-79
2021/12/19 01:27:00;;;;;;;28.73;6.18;;;;;;;;;;2392829;56;21076;-79
2021/12/19 01:29:35;;;;;;;19.92;6.03;;;;;;;;;;2649695;52;21032;-79
2021/12/19 01:35:38;;;;;;;21.05;6.47;;;;;;;;;;2650665;52;20982;-78
2021/12/19 01:38:05;;;;;;;22.35;5.65;;;;;;;;;;2392999;56;21036;-79
2021/12/19 01:40:33;;;;;;;17.73;6.30;;;;;;;;;;2392725;56;21035;-79
2021/12/19 01:43:02;;;;;;;15.77;4.95;;;;;;;;;;2392579;56;21019;-79
2021/12/19 01:45:31;;;;;;;14.57;6.15;;;;;;;;;;2392483;56;21019;-79
2021/12/19 01:48:04;;;;;;;21.20;6.25;;;;;;;;;;2650012;52;21079;-79
2021/12/19 01:50:33;;;;;;;22.85;6.15;;;;;;;;;;2649964;52;21024;-78
2021/12/19 01:53:01;;;;;;;23.20;6.90;;;;;;;;;;2650229;52;21027;-78
2021/12/19 01:55:28;;;;;;;22.77;6.12;;;;;;;;;;2649624;52;21032;-79
2021/12/19 01:57:56;;;;;;;22.23;7.05;;;;;;;;;;2393065;56;21506;-79
2021/12/19 02:00:24;;;;;;;21.30;5.70;;;;;;;;;;2392441;56;21019;-79
2021/12/19 02:03:07;;;;;;;17.90;6.05;;;;;;;;;;2392996;56;21047;-79
2021/12/19 02:05:37;;;;;;;18.15;5.80;;;;;;;;;;2392788;56;21319;-79
2021/12/19 02:08:05;;;;;;;17.80;5.35;;;;;;;;;;2649873;51;21024;-79
2021/12/19 02:10:33;;;;;;;20.62;5.43;;;;;;;;;;2649830;52;21032;-80
2021/12/19 02:13:02;;;;;;;15.73;6.18;;;;;;;;;;2392757;56;21064;-79
2021/12/19 02:15:29;;;;;;;15.20;4.68;;;;;;;;;;2650144;52;21020;-79
2021/12/19 02:18:00;;;;;;;18.40;5.60;;;;;;;;;;2393165;56;21016;-79
2021/12/19 02:20:32;;;;;;;20.40;5.95;;;;;;;;;;2650400;52;21023;-80
2021/12/19 02:22:59;;;;;;;18.98;5.78;;;;;;;;;;2650246;52;21028;-79
2021/12/19 02:25:41;;;;;;;16.35;6.95;;;;;;;;;;2393328;56;21024;-79
2021/12/19 02:28:09;;;;;;;18.08;5.95;;;;;;;;;;2393350;56;21495;-80
2021/12/19 02:30:38;;;;;;;22.37;6.10;;;;;;;;;;2650524;52;21035;-79
2021/12/19 02:33:11;;;;;;;14.65;6.53;;;;;;;;;;2393051;56;21012;-80
2021/12/19 02:35:40;;;;;;;15.98;7.10;;;;;;;;;;2650791;52;21076;-80
2021/12/19 02:49:36;;;;;;;21.65;6.78;;;;;;;;;;2280584;58;27993;-77
2021/12/19 02:52:10;;;;;;;19.52;5.62;;;;;;;;;;2312028;58;21089;-78
2021/12/19 02:54:37;;;;;;;16.23;5.82;;;;;;;;;;2318073;58;21057;-78
2021/12/19 02:57:05;;;;;;;17.80;5.72;;;;;;;;;;2318075;58;21128;-78
2021/12/19 02:59:32;;;;;;;15.38;5.50;;;;;;;;;;2317580;58;21057;-79
2021/12/19 03:01:59;;;;;;;14.65;4.95;;;;;;;;;;2317687;58;21057;-79
2021/12/19 03:04:26;;;;;;;21.02;5.50;;;;;;;;;;2317626;58;21111;-79
2021/12/19 03:06:53;;;;;;;18.02;5.57;;;;;;;;;;2317784;58;21077;-79
2021/12/19 03:09:35;;;;;;;21.98;5.22;;;;;;;;;;2317388;58;21060;-78
2021/12/19 03:12:09;;;;;;;17.08;5.30;;;;;;;;;;2317835;58;21108;-79
2021/12/19 03:20:12;;;;;;;18.48;4.85;;;;;;;;;;2317346;58;21004;-79
2021/12/19 03:22:39;;;;;;;15.20;4.20;;;;;;;;;;2559490;54;21064;-78
2021/12/19 03:25:06;;;;;;;11.88;4.10;;;;;;;;;;2318672;58;21074;-81
2021/12/19 03:27:33;;;;;;;14.35;4.00;;;;;;;;;;2318748;58;21164;-79
2021/12/19 03:30:00;;;;;;;18.70;4.57;;;;;;;;;;2318727;58;21620;-79
2021/12/19 03:32:28;;;;;;;7.85;2.70;;;;;;;;;;2318586;58;21120;-79
2021/12/19 03:34:55;;;;;;;5.45;2.65;;;;;;;;;;2319071;58;21123;-81
2021/12/19 03:37:21;;;;;;;6.93;2.97;;;;;;;;;;2560108;54;21040;-80
2021/12/19 03:39:56;;;;;;;6.90;2.30;;;;;;;;;;2318823;58;21064;-79
2021/12/19 03:42:24;;;;;;;9.02;1.95;;;;;;;;;;2559825;54;21119;-81
2021/12/19 03:44:51;;;;;;;17.30;2.12;;;;;;;;;;2319246;58;21048;-82
2021/12/19 03:47:18;;;;;;;5.80;1.45;;;;;;;;;;2318361;58;21132;-79
2021/12/19 03:49:46;;;;;;;3.12;1.27;;;;;;;;;;2318607;58;21064;-81
2021/12/19 03:52:13;;;;;;;5.05;1.33;;;;;;;;;;2560211;54;21100;-80
2021/12/19 03:54:41;;;;;;;3.90;1.58;;;;;;;;;;2318542;58;21048;-80
2021/12/19 03:57:08;;;;;;;5.22;1.45;;;;;;;;;;2318194;58;21069;-79
2021/12/19 03:59:35;;;;;;;4.32;1.55;;;;;;;;;;2558489;54;21084;-79
2021/12/19 04:02:02;;;;;;;7.25;1.33;;;;;;;;;;2317697;58;21041;-79
2021/12/19 04:04:30;;;;;;;1.33;1.05;;;;;;;;;;2558347;54;21131;-82
2021/12/19 04:06:57;;;;;;;3.83;1.40;;;;;;;;;;2317452;58;21120;-80
2021/12/19 04:09:24;;;;;;;2.65;1.30;;;;;;;;;;2317689;58;21679;-81
2021/12/19 04:11:55;;;;;;;4.05;1.20;;;;;;;;;;2317943;58;21140;-80
2021/12/19 04:14:22;;;;;;;2.45;1.40;;;;;;;;;;2318092;58;21108;-79
2021/12/19 04:16:49;;;;;;;1.70;1.00;;;;;;;;;;2317522;58;21628;-80
2021/12/19 04:19:16;;;;;;;6.45;1.77;;;;;;;;;;2317805;58;21048;-80
2021/12/19 04:21:43;;;;;;;3.22;1.10;;;;;;;;;;2317659;58;21064;-82
2021/12/19 04:24:10;;;;;;;1.77;1.00;;;;;;;;;;2318079;58;21111;-81
2021/12/19 04:26:37;;;;;;;7.85;1.35;;;;;;;;;;2317714;58;22144;-81
2021/12/19 04:29:04;;;;;;;2.65;1.50;;;;;;;;;;2317556;58;21195;-80
2021/12/19 04:31:31;;;;;;;3.17;1.30;;;;;;;;;;2317844;58;21053;-80
2021/12/19 04:33:58;;;;;;;4.90;1.40;;;;;;;;;;2317818;58;21056;-80
2021/12/19 04:36:31;;;;;;;3.00;1.27;;;;;;;;;;2318033;58;21104;-82
2021/12/19 04:50:56;;;;;;;4.25;1.42;;;;;;;;;;2317927;58;21651;-80
2021/12/19 04:53:20;;;;;;;6.40;1.55;;;;;;;;;;2315110;58;21075;-77
2021/12/19 04:56:16;;;;;;;4.03;1.23;;;;;;;;;;2319034;58;21101;-78
2021/12/19 05:05:04;;;;;;;8.48;2.15;;;;;;;;;;2556911;53;21135;-79
2021/12/19 05:15:50;;;;;;;6.25;1.80;;;;;;;;;;2315042;58;21027;-77
2021/12/19 05:18:18;;;;;;;13.48;1.98;;;;;;;;;;2315145;58;21115;-78
2021/12/19 05:20:53;;;;;;;5.95;1.62;;;;;;;;;;2554281;54;21056;-78
2021/12/19 05:23:26;;;;;;;6.65;1.50;;;;;;;;;;2315159;58;21048;-77
2021/12/19 05:25:53;;;;;;;10.65;1.67;;;;;;;;;;2555598;54;21048;-78
2021/12/19 05:28:20;;;;;;;12.80;2.37;;;;;;;;;;2315192;58;21534;-78
2021/12/19 05:30:47;;;;;;;6.55;1.65;;;;;;;;;;2314979;58;21122;-78
2021/12/19 05:33:14;;;;;;;13.35;2.40;;;;;;;;;;2314916;58;21055;-78
2021/12/19 05:36:01;;;;;;;6.97;2.17;;;;;;;;;;2314893;58;21127;-77
2021/12/19 05:46:57;;;;;;;13.98;2.97;;;;;;;;;;2256458;58;21082;-78
2021/12/19 05:49:24;;;;;;;14.80;2.40;;;;;;;;;;2314271;58;21067;-78
2021/12/19 05:51:51;;;;;;;19.30;2.83;;;;;;;;;;2554427;53;21040;-78
2021/12/19 05:54:18;;;;;;;12.70;2.83;;;;;;;;;;2314471;58;21402;-78
2021/12/19 05:56:45;;;;;;;8.02;2.20;;;;;;;;;;2314341;58;21119;-78
2021/12/19 05:59:12;;;;;;;9.80;2.22;;;;;;;;;;2553839;54;21576;-77
2021/12/19 06:01:39;;;;;;;11.45;2.60;;;;;;;;;;2554611;54;21132;-79
2021/12/19 06:04:06;;;;;;;11.12;1.95;;;;;;;;;;2315130;58;21044;-78
2021/12/19 06:06:33;;;;;;;12.95;2.28;;;;;;;;;;2314367;58;21068;-75
2021/12/19 06:09:00;;;;;;;9.27;2.03;;;;;;;;;;2554886;54;21040;-77
2021/12/19 06:11:27;;;;;;;11.90;2.22;;;;;;;;;;2315223;58;21056;-77
2021/12/19 06:13:54;;;;;;;13.98;2.15;;;;;;;;;;2555256;54;21060;-77
2021/12/19 06:16:21;;;;;;;14.20;2.85;;;;;;;;;;2314688;58;21044;-77
2021/12/19 06:18:48;;;;;;;10.35;1.80;;;;;;;;;;2554020;54;21104;-77
2021/12/19 06:21:15;;;;;;;10.93;2.72;;;;;;;;;;2554663;54;21045;-77
2021/12/19 06:23:42;;;;;;;19.55;3.42;;;;;;;;;;2314907;58;21044;-76
2021/12/19 06:26:11;;;;;;;13.00;2.22;;;;;;;;;;2554509;54;21040;-76
2021/12/19 06:28:38;;;;;;;11.32;2.30;;;;;;;;;;2314830;58;21052;-77
2021/12/19 06:31:05;;;;;;;14.95;3.22;;;;;;;;;;2314292;58;21060;-77
2021/12/19 06:33:32;;;;;;;13.27;2.33;;;;;;;;;;2555014;54;21032;-77
2021/12/19 06:35:59;;;;;;;7.97;2.00;;;;;;;;;;2314443;58;21207;-77
2021/12/19 06:38:26;;;;;;;6.75;2.22;;;;;;;;;;2314788;58;22511;-78
2021/12/19 06:40:53;;;;;;;9.20;2.53;;;;;;;;;;2314363;58;21044;-77
2021/12/19 06:43:20;;;;;;;13.05;2.75;;;;;;;;;;2553851;54;22039;-78
2021/12/19 06:45:48;;;;;;;12.48;2.72;;;;;;;;;;2315212;58;21048;-78
2021/12/19 06:48:15;;;;;;;12.52;2.28;;;;;;;;;;2554873;54;21111;-77
2021/12/19 06:50:41;;;;;;;13.60;2.20;;;;;;;;;;2314630;58;21060;-77
2021/12/19 06:53:09;;;;;;;13.98;2.05;;;;;;;;;;2554844;54;21032;-77
2021/12/19 06:55:37;;;;;;;7.15;1.98;;;;;;;;;;2314492;58;21064;-78
2021/12/19 06:58:04;;;;;;;11.05;2.10;;;;;;;;;;2555181;54;21579;-77
2021/12/19 07:00:31;;;;;;;14.63;2.17;;;;;;;;;;2314048;58;21059;-77
2021/12/19 07:02:58;;;;;;;13.40;2.03;;;;;;;;;;2314621;58;21159;-78
2021/12/19 07:05:25;;;;;;;14.65;2.40;;;;;;;;;;2554934;54;21064;-78
2021/12/19 07:07:52;;;;;;;9.70;2.05;;;;;;;;;;2314411;58;21203;-78
2021/12/19 07:10:19;;;;;;;6.95;2.22;;;;;;;;;;2554877;54;21104;-77
2021/12/19 07:12:46;;;;;;;8.77;2.37;;;;;;;;;;2314640;58;21560;-78
2021/12/19 07:15:14;;;;;;;6.80;2.00;;;;;;;;;;2314356;58;21079;-78
2021/12/19 07:17:41;;;;;;;9.55;2.17;;;;;;;;;;2555346;54;21108;-78
2021/12/19 07:20:09;;;;;;;15.52;2.78;;;;;;;;;;2553777;54;21107;-78
2021/12/19 07:22:36;;;;;;;5.93;2.10;;;;;;;;;;2314810;58;21060;-79
2021/12/19 07:25:03;;;;;;;9.80;2.17;;;;;;;;;;2314538;58;21616;-78
2021/12/19 07:27:30;;;;;;;9.40;2.08;;;;;;;;;;2314809;58;21080;-78
2021/12/19 07:29:57;;;;;;;7.72;1.87;;;;;;;;;;2314411;58;21056;-77
2021/12/19 07:32:25;;;;;;;8.20;2.35;;;;;;;;;;2555195;54;21116;-78
2021/12/19 07:34:52;;;;;;;8.85;1.65;;;;;;;;;;2554724;54;21068;-78
2021/12/19 07:37:20;;;;;;;12.98;3.72;;;;;;;;;;2555181;54;21099;-78
2021/12/19 07:39:54;;;;;;;11.27;3.05;;;;;;;;;;2314492;58;21158;-78
2021/12/19 07:42:21;;;;;;;12.75;3.45;;;;;;;;;;2554576;54;21111;-79
2021/12/19 07:44:48;;;;;;;10.80;2.67;;;;;;;;;;2314578;58;21555;-78
2021/12/19 07:47:15;;;;;;;17.10;4.45;;;;;;;;;;2555341;54;21056;-78
2021/12/19 07:49:42;;;;;;;11.48;2.60;;;;;;;;;;2555028;54;21064;-78
2021/12/19 07:52:09;;;;;;;9.45;2.72;;;;;;;;;;2314489;58;21060;-77
2021/12/19 07:54:36;;;;;;;9.77;1.73;;;;;;;;;;2314800;58;21358;-78
2021/12/19 07:57:03;;;;;;;10.40;2.28;;;;;;;;;;2555289;54;21104;-78
2021/12/19 07:59:30;;;;;;;10.93;2.75;;;;;;;;;;2314502;58;21136;-78
2021/12/19 08:01:57;;;;;;;10.13;2.53;;;;;;;;;;2314746;58;21659;-78
2021/12/19 08:04:24;;;;;;;12.18;2.17;;;;;;;;;;2314927;58;21139;-77
2021/12/19 08:06:52;;;;;;;8.23;2.58;;;;;;;;;;2314851;58;21041;-78
2021/12/19 08:09:34;;;;;;;14.63;2.58;;;;;;;;;;2554666;54;21083;-78
2021/12/19 08:12:01;;;;;;;10.93;2.17;;;;;;;;;;2554458;54;21062;-78
2021/12/19 08:14:28;;;;;;;10.20;3.25;;;;;;;;;;2314841;58;21068;-77
2021/12/19 08:16:55;;;;;;;16.05;2.97;;;;;;;;;;2554749;54;21044;-77
2021/12/19 08:19:22;;;;;;;16.52;2.75;;;;;;;;;;2314395;58;22492;-78
2021/12/19 08:21:49;;;;;;;10.80;2.00;;;;;;;;;;2314677;58;21143;-77
2021/12/19 08:24:16;;;;;;;12.48;2.40;;;;;;;;;;2314690;58;21076;-78
2021/12/19 08:26:45;;;;;;;14.48;2.03;;;;;;;;;;2554779;54;22317;-78
2021/12/19 08:29:13;;;;;;;8.48;1.87;;;;;;;;;;2314556;58;21063;-77
2021/12/19 08:31:40;;;;;;;12.30;1.75;;;;;;;;;;2314341;58;21139;-78
2021/12/19 08:34:07;;;;;;;7.65;1.80;;;;;;;;;;2314669;58;21056;-78
2021/12/19 08:36:34;;;;;;;15.68;2.20;;;;;;;;;;2554848;54;21068;-77
2021/12/19 08:39:01;;;;;;;11.55;2.20;;;;;;;;;;2554010;54;21053;-79
2021/12/19 08:41:28;;;;;;;11.40;2.10;;;;;;;;;;2554809;54;21048;-78
2021/12/19 08:43:55;;;;;;;11.82;1.95;;;;;;;;;;2315595;58;21139;-81
2021/12/19 08:46:22;;;;;;;15.77;2.35;;;;;;;;;;2554721;54;21071;-77
2021/12/19 08:48:49;;;;;;;8.50;1.85;;;;;;;;;;2555794;54;21079;-78
2021/12/19 08:51:16;;;;;;;14.55;1.92;;;;;;;;;;2315024;58;21770;-78
2021/12/19 08:53:43;;;;;;;9.90;2.45;;;;;;;;;;2315171;58;21083;-78
2021/12/19 08:56:10;;;;;;;18.85;2.47;;;;;;;;;;2315453;58;21635;-77
2021/12/19 08:58:37;;;;;;;8.77;1.80;;;;;;;;;;2555389;54;21040;-76
2021/12/19 09:01:04;;;;;;;10.15;1.98;;;;;;;;;;2314255;58;21056;-78
2021/12/19 09:03:32;;;;;;;6.72;2.55;;;;;;;;;;2313937;58;21163;-78
2021/12/19 09:05:59;;;;;;;10.10;2.47;;;;;;;;;;2554932;54;21079;-78
2021/12/19 09:08:26;;;;;;;11.35;2.50;;;;;;;;;;2314055;58;21052;-78
2021/12/19 09:10:54;;;;;;;15.20;2.40;;;;;;;;;;2314365;58;21115;-78
2021/12/19 09:13:21;;;;;;;10.00;1.90;;;;;;;;;;2315248;58;21568;-79
2021/12/19 09:15:48;;;;;;;12.73;2.50;;;;;;;;;;2314039;58;21075;-78
2021/12/19 09:18:15;;;;;;;7.62;1.42;;;;;;;;;;2314721;58;21139;-78
2021/12/19 09:20:42;;;;;;;11.60;2.25;;;;;;;;;;2314168;58;21156;-78
2021/12/19 09:23:11;;;;;;;8.57;2.17;;;;;;;;;;2315193;58;21152;-79
2021/12/19 09:25:39;;;;;;;8.77;1.95;;;;;;;;;;2315230;58;21052;-78
2021/12/19 09:28:06;;;;;;;15.95;3.70;;;;;;;;;;2314359;58;21099;-78
2021/12/19 09:30:33;;;;;;;15.02;4.80;;;;;;;;;;2314549;58;21044;-78
2021/12/19 09:33:00;;;;;;;10.15;2.08;;;;;;;;;;2314412;58;21064;-78
2021/12/19 09:35:27;;;;;;;14.75;2.47;;;;;;;;;;2555259;54;21123;-77
2021/12/19 09:37:55;;;;;;;10.70;2.60;;;;;;;;;;2315136;58;21088;-78
2021/12/19 09:40:25;;;;;;;14.23;2.50;;;;;;;;;;2554808;54;21067;-79
2021/12/19 09:43:00;;;;;;;13.82;3.30;;;;;;;;;;2555538;54;21135;-78
2021/12/19 09:45:27;;;;;;;13.65;2.65;;;;;;;;;;2554729;54;21088;-78
2021/12/19 09:47:54;;;;;;;10.43;3.28;;;;;;;;;;2313866;58;21135;-78
2021/12/19 09:50:21;;;;;;;12.55;2.15;;;;;;;;;;2314026;58;21124;-77
2021/12/19 09:52:50;;;;;;;9.85;2.70;;;;;;;;;;2314603;58;21111;-78
2021/12/19 09:55:19;;;;;;;13.18;2.40;;;;;;;;;;2315100;58;21072;-78
2021/12/19 09:57:46;;;;;;;12.93;2.67;;;;;;;;;;2314507;58;21051;-79
2021/12/19 10:00:15;;;;;;;14.55;2.85;;;;;;;;;;2314600;58;21032;-79
2021/12/19 10:02:42;;;;;;;12.82;2.25;;;;;;;;;;2314526;58;21359;-79
2021/12/19 10:05:16;;;;;;;8.02;2.50;;;;;;;;;;2555324;54;21139;-79
2021/12/19 10:07:47;;;;;;;19.05;2.78;;;;;;;;;;2315013;58;21115;-78
2021/12/19 10:10:24;;;;;;;9.85;2.12;;;;;;;;;;2554773;54;21125;-80
2021/12/19 10:12:53;;;;;;;13.23;2.08;;;;;;;;;;2555092;54;21079;-76
2021/12/19 10:15:26;;;;;;;17.20;2.80;;;;;;;;;;2315117;58;21139;-78
2021/12/19 10:18:00;;;;;;;11.25;2.40;;;;;;;;;;2553939;54;21107;-76
2021/12/19 10:20:27;;;;;;;11.23;2.47;;;;;;;;;;2314473;58;21090;-76
2021/12/19 10:22:54;;;;;;;13.18;2.58;;;;;;;;;;2314467;58;21112;-77
2021/12/19 10:25:23;;;;;;;13.68;2.78;;;;;;;;;;2314304;58;21087;-79
2021/12/19 10:27:51;;;;;;;14.90;2.78;;;;;;;;;;2314918;58;21135;-79
2021/12/19 10:30:20;;;;;;;14.35;3.83;;;;;;;;;;2313771;58;21072;-78
2021/12/19 10:32:51;;;;;;;13.88;2.67;;;;;;;;;;2554107;54;21040;-78
2021/12/19 10:35:20;;;;;;;12.75;2.45;;;;;;;;;;2554566;54;21733;-78
2021/12/19 10:37:47;;;;;;;13.82;3.33;;;;;;;;;;2314326;58;21071;-78
2021/12/19 10:40:14;;;;;;;12.25;2.95;;;;;;;;;;2554339;54;21819;-78
2021/12/19 10:42:45;;;;;;;5.05;1.70;;;;;;;;;;2314391;58;21238;-78
2021/12/19 10:45:31;;;;;;;15.05;2.00;;;;;;;;;;2314049;58;21489;-77
2021/12/19 10:48:12;;;;;;;17.08;2.42;;;;;;;;;;2315643;58;21084;-81
2021/12/19 10:50:46;;;;;;;10.38;2.35;;;;;;;;;;2556811;54;21218;-80
2021/12/19 10:53:15;;;;;;;12.43;2.12;;;;;;;;;;2250353;55;70572;-75
2021/12/19 10:55:44;;;;;;;12.40;2.28;;;;;;;;;;2242894;56;21229;-76
2021/12/19 10:58:21;;;;;;;12.45;2.75;;;;;;;;;;2235539;60;21073;-75
2021/12/19 11:00:56;;;;;;;11.85;2.17;;;;;;;;;;2235460;60;21089;-76
2021/12/19 11:03:34;;;;;;;12.68;2.47;;;;;;;;;;2235337;60;21615;-79
2021/12/19 11:06:01;;;;;;;14.90;2.97;;;;;;;;;;2328417;56;21124;-74
2021/12/19 11:08:31;;;;;;;12.35;2.42;;;;;;;;;;2338241;56;21587;-77
2021/12/19 11:10:58;;;;;;;15.82;2.45;;;;;;;;;;2236396;60;21117;-77
2021/12/19 11:13:25;;;;;;;16.87;3.28;;;;;;;;;;2265870;56;21078;-77
2021/12/19 11:15:52;;;;;;;12.23;2.75;;;;;;;;;;2235422;60;21160;-77
2021/12/19 11:18:19;;;;;;;9.77;2.28;;;;;;;;;;2235137;60;21567;-77
2021/12/19 11:20:46;;;;;;;9.90;2.62;;;;;;;;;;2234978;60;21089;-76
2021/12/19 11:23:13;;;;;;;7.20;1.85;;;;;;;;;;2312079;56;21596;-76
2021/12/19 11:25:40;;;;;;;12.40;3.28;;;;;;;;;;2234910;60;21186;-76
2021/12/19 11:28:08;;;;;;;10.75;2.80;;;;;;;;;;2235976;60;21265;-77
2021/12/19 11:30:35;;;;;;;8.82;2.20;;;;;;;;;;2236715;60;21666;-77
2021/12/19 11:33:12;;;;;;;14.30;2.50;;;;;;;;;;2236952;60;21132;-77
2021/12/19 11:35:45;;;;;;;9.80;1.90;;;;;;;;;;2236433;60;21599;-77
2021/12/19 11:38:13;;;;;;;17.90;2.45;;;;;;;;;;2282768;56;21086;-76
2021/12/19 11:40:40;;;;;;;17.90;3.08;;;;;;;;;;2235396;60;21710;-77
2021/12/19 11:43:08;;;;;;;8.75;2.05;;;;;;;;;;2235389;60;21164;-76
2021/12/19 11:45:39;;;;;;;15.00;2.65;;;;;;;;;;2293802;56;21642;-75
2021/12/19 11:48:17;;;;;;;9.70;2.30;;;;;;;;;;2259016;56;21137;-75
2021/12/19 11:50:47;;;;;;;7.10;2.50;;;;;;;;;;2235194;60;21082;-77
2021/12/19 11:53:22;;;;;;;12.95;2.45;;;;;;;;;;2236688;60;21260;-77
2021/12/19 11:55:50;;;;;;;12.57;2.70;;;;;;;;;;2236569;60;21078;-78
2021/12/19 11:58:33;;;;;;;14.45;3.35;;;;;;;;;;2249395;56;21184;-78
2021/12/19 12:01:01;;;;;;;8.48;2.75;;;;;;;;;;2236380;60;21211;-83
2021/12/19 12:03:39;;;;;;;6.78;3.08;;;;;;;;;;2245592;56;21682;-78
2021/12/19 12:06:38;;;;;;;10.73;2.47;;;;;;;;;;2277461;56;21125;-77
2021/12/19 12:09:16;;;;;;;12.82;2.30;;;;;;;;;;2174597;60;21065;-76
2021/12/19 12:12:07;;;;;;;7.55;2.30;;;;;;;;;;2235020;60;21137;-76
2021/12/19 12:14:38;;;;;;;14.98;3.10;;;;;;;;;;2235096;60;21085;-77
2021/12/19 12:17:09;;;;;;;17.85;3.17;;;;;;;;;;2235296;59;21196;-77
2021/12/19 12:19:38;;;;;;;16.80;3.53;;;;;;;;;;2264109;56;21066;-75
2021/12/19 12:22:29;;;;;;;13.75;4.37;;;;;;;;;;2235679;60;21595;-76
2021/12/19 12:25:14;;;;;;;19.00;3.35;;;;;;;;;;2235273;60;21220;-75
2021/12/19 12:27:43;;;;;;;14.45;3.03;;;;;;;;;;2235369;60;21094;-76
2021/12/19 12:30:12;;;;;;;14.05;2.72;;;;;;;;;;2235260;58;21560;-76
2021/12/19 12:32:39;;;;;;;12.13;2.47;;;;;;;;;;2238251;56;21145;-75
2021/12/19 12:35:11;;;;;;;10.93;3.03;;;;;;;;;;2235571;60;21635;-76
2021/12/19 12:37:39;;;;;;;13.50;3.00;;;;;;;;;;2235816;60;21078;-76
2021/12/19 12:40:16;;;;;;;13.65;2.70;;;;;;;;;;2235472;60;21074;-76
2021/12/19 12:43:15;;;;;;;11.05;3.37;;;;;;;;;;2235830;60;21153;-76
2021/12/19 12:46:16;;;;;;;9.35;2.30;;;;;;;;;;2164255;60;21399;-76
2021/12/19 12:51:25;;;;;;;15.88;2.12;;;;;;;;;;2323304;54;22118;-75
2021/12/19 12:53:54;;;;;;;10.93;2.30;;;;;;;;;;2291721;58;21568;-76
2021/12/19 12:56:23;;;;;;;18.10;2.70;;;;;;;;;;2305745;55;21568;-77
2021/12/19 12:58:51;;;;;;;14.70;2.72;;;;;;;;;;2328432;55;21112;-77
2021/12/19 13:01:21;;;;;;;17.27;3.00;;;;;;;;;;2316842;58;21049;-77
2021/12/19 13:04:17;;;;;;;13.23;2.45;;;;;;;;;;2417470;54;21606;-77
2021/12/19 13:06:53;;;;;;;11.40;2.85;;;;;;;;;;2287590;58;21649;-75
2021/12/19 13:09:21;;;;;;;12.18;2.33;;;;;;;;;;2316875;58;21068;-75
2021/12/19 13:11:49;;;;;;;15.80;2.65;;;;;;;;;;2317524;58;21139;-75
2021/12/19 13:14:18;;;;;;;10.18;2.58;;;;;;;;;;2317156;58;21135;-75
2021/12/19 13:16:46;;;;;;;10.60;2.58;;;;;;;;;;2316875;58;21044;-75
2021/12/19 13:19:32;;;;;;;12.63;3.25;;;;;;;;;;2364815;54;21607;-75
2021/12/19 13:21:59;;;;;;;15.65;2.50;;;;;;;;;;2316669;58;21128;-76
2021/12/19 13:24:26;;;;;;;14.70;3.85;;;;;;;;;;2317032;58;21053;-75
2021/12/19 13:27:13;;;;;;;16.60;3.45;;;;;;;;;;2317236;58;21641;-75
2021/12/19 13:29:40;;;;;;;17.52;3.97;;;;;;;;;;2317087;58;21630;-76
2021/12/19 13:32:17;;;;;;;10.98;3.42;;;;;;;;;;2317187;58;21556;-75
2021/12/19 13:34:44;;;;;;;15.40;4.25;;;;;;;;;;2317545;58;21555;-76
2021/12/19 13:37:12;;;;;;;7.57;2.20;;;;;;;;;;2317386;58;21107;-76
2021/12/19 13:39:38;;;;;;;11.32;2.20;;;;;;;;;;2362872;54;21049;-76
2021/12/19 13:42:10;;;;;;;11.25;2.17;;;;;;;;;;2317056;58;21124;-75
2021/12/19 13:44:37;;;;;;;20.73;3.30;;;;;;;;;;2317257;58;21041;-75
2021/12/19 13:47:11;;;;;;;14.77;3.10;;;;;;;;;;2317493;58;21622;-75
2021/12/19 13:49:38;;;;;;;16.98;2.72;;;;;;;;;;2316915;58;21547;-75
2021/12/19 13:52:07;;;;;;;10.40;2.65;;;;;;;;;;2451087;54;21630;-81
2021/12/19 13:54:38;;;;;;;6.55;1.83;;;;;;;;;;2317391;58;21258;-75
2021/12/19 13:57:16;;;;;;;15.05;3.28;;;;;;;;;;2317911;58;21104;-74
2021/12/19 13:59:43;;;;;;;12.15;2.67;;;;;;;;;;2317266;58;21112;-75
2021/12/19 14:02:11;;;;;;;9.50;2.85;;;;;;;;;;2317018;58;21127;-75
2021/12/19 14:04:38;;;;;;;13.00;2.85;;;;;;;;;;2316518;58;21040;-75
2021/12/19 14:07:11;;;;;;;15.77;4.20;;;;;;;;;;2316646;58;21577;-75
2021/12/19 14:09:40;;;;;;;14.18;2.62;;;;;;;;;;2316407;58;21139;-74
2021/12/19 14:12:11;;;;;;;13.20;3.45;;;;;;;;;;2316628;58;21040;-75
2021/12/19 14:14:39;;;;;;;18.48;3.83;;;;;;;;;;2316495;58;21060;-74
2021/12/19 14:17:07;;;;;;;12.82;3.25;;;;;;;;;;2316883;58;21131;-74
2021/12/19 14:19:34;;;;;;;12.23;3.47;;;;;;;;;;2315608;58;21729;-74
2021/12/19 14:22:11;;;;;;;14.45;2.83;;;;;;;;;;2316484;58;21045;-75
2021/12/19 14:24:40;;;;;;;10.32;2.87;;;;;;;;;;2316355;58;21124;-74
2021/12/19 14:27:11;;;;;;;18.85;3.03;;;;;;;;;;2316934;58;21129;-75
2021/12/19 14:29:39;;;;;;;10.93;2.58;;;;;;;;;;2315756;58;21630;-74
2021/12/19 14:32:11;;;;;;;15.82;3.25;;;;;;;;;;2323074;54;21081;-76
2021/12/19 14:34:38;;;;;;;18.80;3.62;;;;;;;;;;2316104;58;21521;-76
2021/12/19 14:37:16;;;;;;;14.95;3.45;;;;;;;;;;2316151;58;21060;-76
2021/12/19 14:39:56;;;;;;;13.68;3.17;;;;;;;;;;2315475;58;21635;-75
2021/12/19 14:42:28;;;;;;;18.77;4.87;;;;;;;;;;2316670;58;21543;-75
2021/12/19 14:44:56;;;;;;;22.60;3.47;;;;;;;;;;2336421;54;21080;-75
2021/12/19 14:47:34;;;;;;;14.50;3.50;;;;;;;;;;2316557;58;21554;-75
2021/12/19 14:50:09;;;;;;;12.52;3.17;;;;;;;;;;2315549;58;21551;-75
2021/12/19 14:52:36;;;;;;;24.23;4.68;;;;;;;;;;2316260;58;21621;-76
2021/12/19 14:55:09;;;;;;;15.38;2.95;;;;;;;;;;2316073;58;21147;-76
2021/12/19 14:57:36;;;;;;;25.23;3.92;;;;;;;;;;2317059;58;21060;-75
2021/12/19 15:00:05;;;;;;;23.40;4.95;;;;;;;;;;2315808;58;21050;-76
2021/12/19 15:02:32;;;;;;;20.30;5.07;;;;;;;;;;2316210;58;21618;-75
2021/12/19 15:04:59;;;;;;;22.87;6.18;;;;;;;;;;2316741;58;21303;-75
2021/12/19 15:07:26;;;;;;;20.25;5.95;;;;;;;;;;2316641;58;21048;-75
2021/12/19 15:09:53;;;;;;;22.08;3.90;;;;;;;;;;2316629;58;21061;-75
2021/12/19 15:12:20;;;;;;;27.15;5.25;;;;;;;;;;2316721;58;21115;-75
2021/12/19 15:14:47;;;;;;;18.95;4.07;;;;;;;;;;2422790;54;21104;-75
2021/12/19 15:17:14;;;;;;;28.05;8.48;;;;;;;;;;2316521;58;21040;-75
2021/12/19 15:19:41;;;;;;;18.05;5.53;;;;;;;;;;2316125;58;21119;-75
2021/12/19 15:22:08;;;;;;;26.20;5.22;;;;;;;;;;2316390;58;21056;-75
2021/12/19 15:24:37;;;;;;;20.50;4.37;;;;;;;;;;2315497;58;21131;-75
2021/12/19 15:27:04;;;;;;;21.58;4.97;;;;;;;;;;2316520;58;21139;-75
2021/12/19 15:29:31;;;;;;;23.67;4.62;;;;;;;;;;2315827;58;21112;-75
2021/12/19 15:31:58;;;;;;;22.58;6.68;;;;;;;;;;2316137;58;21659;-75
2021/12/19 15:34:26;;;;;;;18.77;4.50;;;;;;;;;;2315965;58;21570;-76
2021/12/19 15:36:54;;;;;;;25.73;5.45;;;;;;;;;;2316385;58;21072;-75
2021/12/19 15:39:21;;;;;;;21.98;4.20;;;;;;;;;;2315568;58;21065;-75
2021/12/19 15:41:50;;;;;;;16.67;3.90;;;;;;;;;;2315614;58;21049;-75
2021/12/19 15:44:17;;;;;;;22.10;3.90;;;;;;;;;;2322855;54;21143;-75
2021/12/19 15:46:45;;;;;;;21.12;3.72;;;;;;;;;;2325885;54;21644;-75
2021/12/19 15:49:12;;;;;;;19.60;4.18;;;;;;;;;;2315596;55;21567;-75